createdAt,value
2018-06-28T00:01:39.192Z,62.76
2018-06-28T00:04:06.652Z,62.16
2018-06-28T00:06:34.288Z,62.79
2018-06-28T00:09:00.934Z,62.11
2018-06-28T00:11:28.574Z,63.04
2018-06-28T00:13:56.240Z,62.36
2018-06-28T00:16:23.825Z,62.24
2018-06-28T00:18:51.476Z,62.92
2018-06-28T00:21:19.086Z,62.22
2018-06-28T00:23:46.617Z,62.34
2018-06-28T00:26:13.266Z,62.29
2018-06-28T00:28:39.914Z,63.03
2018-06-28T00:31:06.550Z,62.76
2018-06-28T00:33:33.188Z,63.25
2018-06-28T00:35:59.817Z,63.26
2018-06-28T00:38:26.476Z,62.66
2018-06-28T00:40:53.129Z,62.49
2018-06-28T00:43:20.573Z,61.92
2018-06-28T00:45:47.204Z,62.25
2018-06-28T00:48:13.854Z,62.34
2018-06-28T00:50:40.505Z,62.91
2018-06-28T00:53:07.171Z,62.91
2018-06-28T00:55:34.771Z,62.24
2018-06-28T00:58:01.464Z,62.74
2018-06-28T01:00:28.128Z,63.05
2018-06-28T01:02:54.836Z,62.51
2018-06-28T01:05:21.512Z,63.26
2018-06-28T01:07:48.157Z,62.46
2018-06-28T01:10:14.804Z,63.22
2018-06-28T01:12:42.581Z,62.53
2018-06-28T01:15:10.268Z,62.41
2018-06-28T01:17:36.916Z,63.33
2018-06-28T01:20:03.929Z,61.86
2018-06-28T01:22:30.567Z,62.46
2018-06-28T01:24:58.169Z,63.30
2018-06-28T01:27:24.804Z,62.77
2018-06-28T01:29:51.444Z,62.39
2018-06-28T01:32:18.092Z,62.44
2018-06-28T01:34:44.736Z,63.08
2018-06-28T01:37:12.388Z,63.19
2018-06-28T01:39:40.153Z,62.32
2018-06-28T01:42:12.614Z,63.06
2018-06-28T01:44:39.280Z,63.10
2018-06-28T01:47:05.913Z,62.69
2018-06-28T01:49:32.552Z,62.65
2018-06-28T01:51:59.204Z,62.77
2018-06-28T01:54:25.857Z,62.67
2018-06-28T01:56:52.506Z,62.45
2018-06-28T01:59:19.168Z,63.79
2018-06-28T02:01:45.816Z,63.34
2018-06-28T02:04:13.499Z,63.19
2018-06-28T02:06:40.144Z,63.32
2018-06-28T02:09:08.776Z,63.48
2018-06-28T02:11:36.408Z,63.44
2018-06-28T02:14:03.165Z,62.83
2018-06-28T02:16:30.618Z,62.91
2018-06-28T02:18:57.261Z,63.58
2018-06-28T02:21:24.870Z,63.51
2018-06-28T02:23:52.508Z,62.30
2018-06-28T02:26:19.149Z,62.91
2018-06-28T02:28:45.842Z,63.00
2018-06-28T02:31:13.533Z,63.36
2018-06-28T02:33:41.281Z,62.64
2018-06-28T02:36:08.026Z,62.72
2018-06-28T02:38:34.730Z,63.37
2018-06-28T02:41:02.208Z,63.22
2018-06-28T02:43:28.849Z,63.33
2018-06-28T02:45:55.493Z,63.00
2018-06-28T02:48:22.203Z,63.04
2018-06-28T02:50:48.857Z,63.18
2018-06-28T02:53:16.284Z,63.00
2018-06-28T02:55:43.648Z,63.21
2018-06-28T02:58:10.290Z,63.54
2018-06-28T03:00:36.946Z,63.17
2018-06-28T03:03:03.600Z,63.37
2018-06-28T03:05:30.290Z,62.71
2018-06-28T03:07:57.691Z,63.60
2018-06-28T03:10:24.374Z,63.52
2018-06-28T03:12:51.036Z,62.88
2018-06-28T03:15:17.718Z,62.67
2018-06-28T03:17:44.353Z,63.48
2018-06-28T03:20:11.004Z,63.53
2018-06-28T03:22:38.258Z,63.39
2018-06-28T03:25:05.841Z,63.27
2018-06-28T03:27:32.492Z,62.98
2018-06-28T03:29:59.119Z,63.31
2018-06-28T03:32:25.765Z,63.58
2018-06-28T03:34:52.409Z,63.52
2018-06-28T03:37:19.041Z,62.88
2018-06-28T03:39:46.744Z,62.80
2018-06-28T03:42:13.404Z,63.45
2018-06-28T03:44:40.960Z,62.90
2018-06-28T03:47:09.712Z,63.68
2018-06-28T03:49:37.396Z,62.93
2018-06-28T03:52:05.020Z,62.94
2018-06-28T03:54:32.718Z,63.02
2018-06-28T03:56:59.390Z,63.43
2018-06-28T03:59:26.040Z,61.86
2018-06-28T04:01:53.626Z,61.57
2018-06-28T04:04:21.300Z,61.21
2018-06-28T04:06:47.976Z,60.89
2018-06-28T04:09:14.617Z,61.15
2018-06-28T04:11:43.489Z,60.81
2018-06-28T04:14:10.176Z,59.94
2018-06-28T04:16:38.761Z,59.94
2018-06-28T04:19:05.463Z,59.80
2018-06-28T04:21:32.916Z,59.61
2018-06-28T04:23:59.561Z,60.51
2018-06-28T04:26:27.120Z,59.91
2018-06-28T04:28:53.831Z,59.67
2018-06-28T04:31:20.470Z,60.08
2018-06-28T04:33:47.120Z,60.79
2018-06-28T04:36:14.674Z,59.97
2018-06-28T04:38:43.654Z,60.88
2018-06-28T04:41:11.126Z,59.99
2018-06-28T04:43:38.974Z,60.76
2018-06-28T04:46:06.638Z,60.09
2018-06-28T04:48:34.161Z,60.16
2018-06-28T04:51:00.844Z,59.98
2018-06-28T04:53:28.509Z,60.26
2018-06-28T04:55:56.165Z,60.37
2018-06-28T04:58:23.737Z,60.12
2018-06-28T05:00:51.425Z,61.04
2018-06-28T05:03:18.895Z,60.44
2018-06-28T05:05:46.497Z,61.20
2018-06-28T05:08:13.973Z,61.09
2018-06-28T05:10:42.637Z,60.39
2018-06-28T05:13:12.232Z,60.74
2018-06-28T05:15:39.849Z,61.29
2018-06-28T05:18:07.523Z,61.69
2018-06-28T05:20:34.477Z,61.37
2018-06-28T05:23:01.185Z,60.38
2018-06-28T05:25:27.851Z,61.38
2018-06-28T05:27:55.682Z,60.65
2018-06-28T05:30:27.428Z,61.34
2018-06-28T05:32:54.165Z,61.35
2018-06-28T05:35:21.776Z,60.77
2018-06-28T05:37:48.557Z,61.24
2018-06-28T05:40:16.180Z,60.71
2018-06-28T05:42:43.868Z,61.29
2018-06-28T05:45:12.030Z,61.35
2018-06-28T05:47:39.689Z,61.45
2018-06-28T05:50:06.337Z,60.76
2018-06-28T05:52:33.956Z,61.08
2018-06-28T05:55:01.599Z,60.95
2018-06-28T05:57:29.172Z,60.82
2018-06-28T05:59:56.814Z,61.67
2018-06-28T06:02:23.458Z,61.11
2018-06-28T06:04:50.149Z,61.83
2018-06-28T06:07:16.788Z,60.70
2018-06-28T06:09:43.429Z,61.29
2018-06-28T06:12:10.125Z,61.87
2018-06-28T06:14:39.097Z,61.53
2018-06-28T06:17:05.744Z,61.44
2018-06-28T06:19:33.209Z,61.76
2018-06-28T06:21:59.877Z,61.02
2018-06-28T06:24:26.572Z,61.14
2018-06-28T06:26:53.216Z,60.93
2018-06-28T06:29:19.867Z,61.64
2018-06-28T06:31:46.506Z,61.83
2018-06-28T06:34:13.154Z,61.04
2018-06-28T06:36:39.793Z,61.48
2018-06-28T06:39:07.324Z,61.63
2018-06-28T06:41:33.983Z,61.02
2018-06-28T06:44:00.634Z,61.03
2018-06-28T06:46:27.268Z,61.78
2018-06-28T06:48:53.924Z,61.02
2018-06-28T06:51:20.573Z,60.96
2018-06-28T06:53:47.227Z,61.23
2018-06-28T06:56:13.873Z,61.73
2018-06-28T06:58:40.504Z,61.28
2018-06-28T07:01:08.206Z,61.16
2018-06-28T07:03:34.893Z,61.05
2018-06-28T07:06:01.526Z,61.91
2018-06-28T07:08:28.553Z,61.68
2018-06-28T07:10:55.226Z,60.85
2018-06-28T07:13:21.869Z,61.33
2018-06-28T07:15:48.511Z,61.21
2018-06-28T07:18:15.169Z,61.12
2018-06-28T07:20:42.333Z,61.37
2018-06-28T07:23:10.144Z,61.45
2018-06-28T07:25:36.889Z,61.33
2018-06-28T07:28:03.569Z,61.26
2018-06-28T07:30:30.224Z,62.14
2018-06-28T07:32:57.098Z,61.35
2018-06-28T07:35:23.803Z,61.24
2018-06-28T07:37:50.574Z,61.14
2018-06-28T07:40:17.236Z,60.95
2018-06-28T07:42:44.397Z,60.50
2018-06-28T07:45:11.171Z,59.93
2018-06-28T07:47:39.880Z,60.43
2018-06-28T07:50:07.502Z,60.29
2018-06-28T07:52:35.306Z,59.71
2018-06-28T07:55:02.042Z,59.52
2018-06-28T07:57:28.706Z,59.52
2018-06-28T07:59:55.382Z,60.41
2018-06-28T08:02:23.032Z,59.55
2018-06-28T08:04:49.699Z,60.12
2018-06-28T08:07:17.378Z,60.29
2018-06-28T08:09:44.083Z,60.51
2018-06-28T08:12:10.781Z,60.21
2018-06-28T08:14:37.429Z,59.90
2018-06-28T08:17:04.112Z,59.80
2018-06-28T08:19:31.600Z,59.88
2018-06-28T08:21:58.897Z,60.48
2018-06-28T08:24:26.346Z,60.50
2018-06-28T08:26:54.084Z,60.07
2018-06-28T08:29:21.689Z,59.97
2018-06-28T08:31:49.427Z,60.25
2018-06-28T08:34:17.004Z,60.45
2018-06-28T08:36:44.610Z,60.73
2018-06-28T08:39:13.167Z,60.79
2018-06-28T08:41:40.778Z,60.11
2018-06-28T08:44:09.578Z,60.88
2018-06-28T08:46:37.257Z,60.87
2018-06-28T08:49:04.867Z,61.03
2018-06-28T08:51:32.434Z,60.16
2018-06-28T08:54:00.082Z,60.02
2018-06-28T08:56:27.582Z,60.76
2018-06-28T08:58:55.080Z,61.17
2018-06-28T09:01:22.714Z,60.31
2018-06-28T09:03:50.369Z,61.01
2018-06-28T09:06:18.077Z,60.07
2018-06-28T09:08:45.653Z,60.27
2018-06-28T09:11:13.333Z,60.53
2018-06-28T09:13:40.041Z,60.28
2018-06-28T09:16:07.528Z,61.04
2018-06-28T09:18:34.213Z,60.40
2018-06-28T09:21:01.759Z,60.32
2018-06-28T09:23:29.178Z,60.21
2018-06-28T09:25:55.825Z,60.33
2018-06-28T09:28:22.517Z,60.14
2018-06-28T09:30:50.045Z,60.92
2018-06-28T09:33:17.153Z,60.78
2018-06-28T09:35:44.657Z,61.20
2018-06-28T09:38:12.744Z,61.04
2018-06-28T09:40:39.760Z,60.37
2018-06-28T09:43:06.412Z,61.13
2018-06-28T09:45:33.052Z,60.64
2018-06-28T09:47:59.691Z,60.58
2018-06-28T09:50:26.447Z,60.19
2018-06-28T09:52:53.255Z,60.68
2018-06-28T09:55:20.077Z,60.80
2018-06-28T09:57:46.736Z,61.08
2018-06-28T10:00:17.853Z,60.46
2018-06-28T10:02:44.487Z,60.29
2018-06-28T10:05:11.161Z,61.08
2018-06-28T10:07:38.713Z,61.08
2018-06-28T10:10:05.364Z,61.03
2018-06-28T10:12:32.032Z,61.20
2018-06-28T10:14:58.672Z,61.32
2018-06-28T10:17:25.374Z,60.64
2018-06-28T10:19:52.857Z,60.63
2018-06-28T10:22:19.508Z,60.60
2018-06-28T10:24:46.140Z,61.43
2018-06-28T10:27:13.492Z,61.15
2018-06-28T10:29:41.125Z,60.45
2018-06-28T10:32:09.517Z,60.70
2018-06-28T10:34:36.189Z,60.83
2018-06-28T10:37:02.845Z,61.80
2018-06-28T10:39:30.456Z,61.57
2018-06-28T10:41:58.120Z,61.23
2018-06-28T10:44:25.692Z,60.95
2018-06-28T10:46:52.337Z,60.87
2018-06-28T10:49:20.001Z,61.59
2018-06-28T10:51:47.658Z,61.03
2018-06-28T10:54:15.204Z,61.88
2018-06-28T10:56:43.313Z,61.56
2018-06-28T10:59:10.942Z,61.80
2018-06-28T11:01:37.616Z,60.89
2018-06-28T11:04:05.306Z,62.02
2018-06-28T11:06:32.024Z,61.65
2018-06-28T11:08:58.688Z,60.90
2018-06-28T11:11:25.366Z,61.69
2018-06-28T11:13:53.410Z,60.93
2018-06-28T11:16:21.085Z,61.06
2018-06-28T11:18:47.806Z,61.62
2018-06-28T11:21:14.502Z,60.99
2018-06-28T11:23:43.052Z,61.78
2018-06-28T11:26:10.597Z,61.94
2018-06-28T11:28:38.276Z,61.77
2018-06-28T11:31:05.916Z,60.90
2018-06-28T11:33:32.780Z,61.84
2018-06-28T11:35:59.420Z,61.69
2018-06-28T11:38:26.131Z,61.64
2018-06-28T11:40:52.785Z,61.75
2018-06-28T11:43:19.474Z,61.96
2018-06-28T11:45:46.139Z,61.00
2018-06-28T11:48:13.708Z,60.96
2018-06-28T11:50:41.200Z,60.94
2018-06-28T11:53:10.097Z,61.35
2018-06-28T11:55:37.701Z,61.61
2018-06-28T11:58:04.460Z,61.16
2018-06-28T12:00:31.110Z,61.78
2018-06-28T12:02:58.711Z,61.71
2018-06-28T12:05:26.415Z,61.69
2018-06-28T12:07:53.908Z,61.26
2018-06-28T12:10:20.558Z,61.92
2018-06-28T12:12:47.375Z,61.93
2018-06-28T12:15:14.936Z,62.24
2018-06-28T12:17:43.624Z,61.49
2018-06-28T12:20:12.689Z,62.03
2018-06-28T12:22:42.250Z,61.27
2018-06-28T12:25:09.606Z,61.49
2018-06-28T12:27:37.161Z,62.41
2018-06-28T12:30:03.901Z,61.78
2018-06-28T12:32:30.553Z,61.32
2018-06-28T12:34:57.240Z,61.33
2018-06-28T12:37:24.933Z,61.33
2018-06-28T12:39:51.571Z,62.10
2018-06-28T12:42:18.211Z,61.47
2018-06-28T12:44:44.932Z,62.26
2018-06-28T12:47:51.618Z,62.14
2018-06-28T12:50:18.244Z,62.34
2018-06-28T12:52:47.750Z,62.76
2018-06-28T12:55:16.503Z,62.05
2018-06-28T12:57:44.653Z,62.41
2018-06-28T13:00:12.756Z,62.39
2018-06-28T13:02:40.749Z,61.56
2018-06-28T13:05:08.429Z,61.40
2018-06-28T13:07:36.114Z,61.44
2018-06-28T13:10:03.656Z,62.19
2018-06-28T13:12:30.613Z,61.47
2018-06-28T13:14:57.304Z,62.03
2018-06-28T13:17:24.024Z,61.51
2018-06-28T13:19:50.653Z,61.57
2018-06-28T13:22:17.316Z,62.45
2018-06-28T13:24:44.923Z,62.28
2018-06-28T13:27:12.820Z,61.54
2018-06-28T13:29:40.849Z,61.77
2018-06-28T13:32:07.508Z,61.88
2018-06-28T13:34:34.154Z,62.48
2018-06-28T13:37:00.817Z,61.60
2018-06-28T13:39:27.521Z,61.57
2018-06-28T13:41:54.257Z,62.56
2018-06-28T13:44:21.706Z,62.37
2018-06-28T13:46:49.334Z,61.61
2018-06-28T13:49:16.106Z,62.54
2018-06-28T13:51:43.733Z,61.63
2018-06-28T13:54:10.469Z,62.58
2018-06-28T13:56:39.091Z,62.53
2018-06-28T13:59:06.656Z,61.86
2018-06-28T14:01:34.496Z,61.64
2018-06-28T14:04:02.086Z,62.55
2018-06-28T14:06:29.689Z,62.18
2018-06-28T14:08:57.341Z,61.92
2018-06-28T14:11:24.829Z,62.39
2018-06-28T14:13:52.478Z,62.55
2018-06-28T14:16:20.113Z,61.77
2018-06-28T14:18:47.808Z,61.81
2018-06-28T14:21:14.845Z,62.10
2018-06-28T14:23:42.985Z,62.53
2018-06-28T14:26:11.061Z,61.58
2018-06-28T14:28:37.703Z,61.77
2018-06-28T14:31:04.401Z,62.44
2018-06-28T14:33:32.073Z,62.53
2018-06-28T14:35:58.732Z,62.07
2018-06-28T14:38:25.429Z,62.54
2018-06-28T14:40:52.072Z,62.15
2018-06-28T14:43:19.690Z,62.44
2018-06-28T14:45:46.396Z,61.70
2018-06-28T14:48:14.423Z,62.66
2018-06-28T14:50:41.276Z,62.05
2018-06-28T14:53:07.777Z,61.88
2018-06-28T14:55:34.447Z,62.69
2018-06-28T14:58:01.100Z,61.89
2018-06-28T15:00:27.758Z,62.47
2018-06-28T15:02:54.408Z,61.78
2018-06-28T15:05:21.108Z,62.65
2018-06-28T15:07:47.776Z,61.82
2018-06-28T15:10:14.492Z,62.65
2018-06-28T15:12:43.057Z,61.67
2018-06-28T15:15:10.725Z,62.04
2018-06-28T15:17:37.392Z,62.23
2018-06-28T15:20:04.557Z,62.17
2018-06-28T15:22:31.209Z,61.79
2018-06-28T15:24:57.866Z,62.34
2018-06-28T15:27:24.567Z,61.95
2018-06-28T15:29:51.188Z,61.22
2018-06-28T15:32:17.830Z,62.57
2018-06-28T15:34:44.555Z,62.54
2018-06-28T15:37:13.074Z,62.71
2018-06-28T15:39:42.992Z,62.81
2018-06-28T15:42:10.076Z,62.40
2018-06-28T15:44:37.692Z,61.91
2018-06-28T15:47:05.236Z,62.42
2018-06-28T15:49:32.829Z,62.58
2018-06-28T15:52:00.529Z,62.53
2018-06-28T15:54:27.949Z,62.73
2018-06-28T15:56:55.633Z,62.05
2018-06-28T15:59:23.229Z,61.84
2018-06-28T16:01:50.868Z,62.26
2018-06-28T16:04:18.612Z,62.40
2018-06-28T16:06:46.136Z,61.89
2018-06-28T16:09:13.848Z,62.55
2018-06-28T16:11:42.513Z,61.81
2018-06-28T16:14:10.341Z,61.71
2018-06-28T16:16:37.969Z,61.66
2018-06-28T16:19:05.665Z,61.85
2018-06-28T16:21:33.337Z,61.85
2018-06-28T16:23:59.985Z,61.70
2018-06-28T16:26:26.699Z,61.74
2018-06-28T16:28:53.347Z,62.02
2018-06-28T16:31:20.020Z,61.58
2018-06-28T16:33:46.713Z,61.80
2018-06-28T16:36:13.408Z,61.92
2018-06-28T16:38:40.058Z,61.82
2018-06-28T16:41:06.737Z,62.61
2018-06-28T16:43:33.440Z,62.70
2018-06-28T16:46:00.161Z,62.68
2018-06-28T16:48:27.773Z,61.67
2018-06-28T16:50:55.240Z,62.80
2018-06-28T16:53:22.864Z,62.21
2018-06-28T16:55:49.612Z,63.09
2018-06-28T16:58:17.064Z,62.27
2018-06-28T17:00:43.765Z,62.34
2018-06-28T17:03:10.420Z,62.83
2018-06-28T17:05:37.073Z,62.18
2018-06-28T17:08:03.753Z,62.87
2018-06-28T17:10:31.252Z,62.11
2018-06-28T17:12:58.867Z,62.24
2018-06-28T17:15:25.514Z,62.26
2018-06-28T17:17:52.177Z,62.11
2018-06-28T17:20:18.879Z,63.14
2018-06-28T17:22:45.573Z,62.40
2018-06-28T17:27:40.320Z,62.38
2018-06-28T17:30:07.777Z,62.91
2018-06-28T17:32:35.533Z,62.89
2018-06-28T17:35:03.172Z,63.11
2018-06-28T17:37:30.612Z,62.72
2018-06-28T17:39:58.177Z,62.38
2018-06-28T17:42:24.832Z,62.65
2018-06-28T17:44:51.477Z,62.53
2018-06-28T17:47:19.080Z,63.01
2018-06-28T17:49:45.813Z,62.53
2018-06-28T17:52:13.414Z,63.05
2018-06-28T17:54:41.067Z,62.18
2018-06-28T17:57:07.704Z,62.37
2018-06-28T17:59:34.340Z,62.29
2018-06-28T18:04:27.145Z,62.40
2018-06-28T18:06:54.704Z,62.35
2018-06-28T18:09:21.549Z,62.39
2018-06-28T18:11:48.200Z,62.27
2018-06-28T18:14:14.853Z,62.48
2018-06-28T18:16:42.698Z,61.46
2018-06-28T18:19:10.429Z,61.10
2018-06-28T18:21:37.093Z,60.04
2018-06-28T18:24:03.786Z,59.97
2018-06-28T18:26:30.421Z,60.01
2018-06-28T18:28:57.121Z,59.70
2018-06-28T18:31:23.774Z,60.22
2018-06-28T18:33:50.425Z,59.59
2018-06-28T18:36:17.078Z,59.31
2018-06-28T18:38:43.789Z,59.34
2018-06-28T18:41:10.441Z,59.54
2018-06-28T18:43:39.660Z,59.12
2018-06-28T18:46:07.654Z,60.42
2018-06-28T18:48:35.256Z,59.66
2018-06-28T18:51:02.938Z,60.48
2018-06-28T18:53:30.891Z,60.40
2018-06-28T18:55:57.913Z,60.42
2018-06-28T18:58:25.377Z,59.67
2018-06-28T19:00:52.964Z,59.75
2018-06-28T19:03:20.593Z,60.54
2018-06-28T19:05:48.153Z,59.84
2018-06-28T19:08:15.628Z,59.75
2018-06-28T19:10:48.064Z,59.89
2018-06-28T19:13:16.713Z,60.46
2018-06-28T19:15:49.155Z,60.04
2018-06-28T19:18:16.780Z,60.72
2018-06-28T19:20:48.189Z,60.71
2018-06-28T19:23:20.469Z,59.76
2018-06-28T19:25:47.208Z,60.84
2018-06-28T19:28:14.979Z,60.91
2018-06-28T19:30:49.728Z,60.94
2018-06-28T19:33:16.376Z,60.32
2018-06-28T19:35:45.122Z,60.41
2018-06-28T19:38:13.716Z,61.02
2018-06-28T19:40:47.022Z,61.33
2018-06-28T19:43:14.760Z,60.39
2018-06-28T19:45:42.598Z,60.53
2018-06-28T19:48:09.977Z,60.62
2018-06-28T19:50:42.445Z,61.09
2018-06-28T19:53:12.813Z,61.19
2018-06-28T19:55:40.651Z,61.22
2018-06-28T19:58:07.956Z,61.02
2018-06-28T20:00:40.342Z,61.04
2018-06-28T20:03:12.687Z,61.55
2018-06-28T20:05:40.708Z,61.29
2018-06-28T20:08:07.493Z,60.62
2018-06-28T20:10:34.172Z,61.33
2018-06-28T20:13:06.549Z,60.86
2018-06-28T20:15:44.784Z,61.49
2018-06-28T20:18:17.290Z,61.60
2018-06-28T20:20:43.945Z,61.46
2018-06-28T20:23:10.644Z,60.72
2018-06-28T20:25:37.304Z,60.55
2018-06-28T20:28:09.644Z,61.41
2018-06-28T20:30:42.968Z,61.40
2018-06-28T20:33:15.332Z,61.52
2018-06-28T20:35:43.105Z,60.89
2018-06-28T20:38:10.757Z,61.43
2018-06-28T20:40:39.341Z,61.51
2018-06-28T20:43:06.037Z,61.42
2018-06-28T20:45:32.688Z,61.59
2018-06-28T20:47:59.352Z,60.80
2018-06-28T20:50:26.988Z,61.45
2018-06-28T20:52:53.699Z,61.62
2018-06-28T20:55:20.362Z,61.18
2018-06-28T20:57:47.008Z,60.96
2018-06-28T21:00:13.912Z,60.68
2018-06-28T21:02:40.605Z,60.87
2018-06-28T21:05:07.319Z,61.17
2018-06-28T21:07:34.092Z,61.71
2018-06-28T21:10:00.989Z,60.96
2018-06-28T21:12:28.477Z,61.15
2018-06-28T21:14:55.140Z,61.45
2018-06-28T21:17:21.783Z,60.93
2018-06-28T21:19:48.552Z,61.68
2018-06-28T21:22:15.196Z,61.31
2018-06-28T21:24:43.747Z,61.79
2018-06-28T21:27:10.644Z,61.85
2018-06-28T21:29:37.305Z,61.95
2018-06-28T21:32:04.976Z,61.76
2018-06-28T21:34:32.540Z,61.04
2018-06-28T21:37:00.091Z,61.97
2018-06-28T21:39:27.570Z,62.03
2018-06-28T21:41:55.264Z,61.85
2018-06-28T21:44:22.889Z,61.10
2018-06-28T21:46:50.368Z,61.10
2018-06-28T21:49:18.057Z,61.08
2018-06-28T21:51:45.741Z,61.22
2018-06-28T21:54:13.344Z,61.11
2018-06-28T21:56:40.072Z,61.09
2018-06-28T21:59:06.759Z,61.20
2018-06-28T22:01:34.228Z,61.00
2018-06-28T22:04:00.884Z,61.78
2018-06-28T22:06:27.533Z,61.08
2018-06-28T22:08:55.053Z,61.64
2018-06-28T22:11:21.767Z,62.01
2018-06-28T22:13:48.432Z,61.96
2018-06-28T22:16:15.886Z,61.33
2018-06-28T22:18:43.977Z,62.18
2018-06-28T22:21:12.714Z,62.04
2018-06-28T22:23:40.049Z,61.24
2018-06-28T22:26:07.627Z,61.30
2018-06-28T22:28:34.320Z,61.89
2018-06-28T22:31:02.037Z,61.83
2018-06-28T22:33:29.624Z,62.24
2018-06-28T22:35:56.529Z,61.95
2018-06-28T22:38:24.124Z,61.14
2018-06-28T22:40:51.725Z,61.14
2018-06-28T22:43:19.224Z,61.30
2018-06-28T22:45:45.881Z,61.94
2018-06-28T22:48:13.672Z,62.12
2018-06-28T22:50:40.322Z,61.76
2018-06-28T22:53:07.897Z,61.35
2018-06-28T22:55:34.540Z,61.47
2018-06-28T22:58:02.040Z,62.17
2018-06-28T23:00:29.473Z,61.33
2018-06-28T23:02:56.132Z,61.38
2018-06-28T23:05:22.780Z,62.14
2018-06-28T23:07:49.441Z,61.34
2018-06-28T23:10:16.092Z,62.16
2018-06-28T23:12:43.573Z,61.28
2018-06-28T23:15:10.320Z,62.01
2018-06-28T23:17:36.988Z,62.24
2018-06-28T23:20:03.745Z,61.45
2018-06-28T23:22:48.449Z,62.31
2018-06-28T23:25:15.601Z,62.34
2018-06-28T23:27:43.344Z,62.39
2018-06-28T23:30:10.628Z,61.27
2018-06-28T23:32:37.298Z,61.91
2018-06-28T23:35:04.348Z,62.30
2018-06-28T23:37:31.016Z,62.18
2018-06-28T23:39:57.681Z,62.36
2018-06-28T23:42:24.319Z,61.64
2018-06-28T23:44:50.969Z,61.98
2018-06-28T23:47:17.653Z,62.12
2018-06-28T23:49:44.305Z,62.18
2018-06-28T23:52:10.957Z,61.42
2018-06-28T23:54:37.708Z,62.27
2018-06-28T23:57:04.353Z,61.78
2018-06-28T23:59:31.014Z,61.48
